sensor_id;sensor_type;location;lat;lon;timestamp;temperature;humidity
44982;DHT22;30716;41.740;-70.400;2023-04-15T00:01:48;24.00;42.30
44982;DHT22;30716;41.740;-70.400;2023-04-15T00:04:14;24.00;42.30
44982;DHT22;30716;41.740;-70.400;2023-04-15T00:06:40;23.90;42.10
44982;DHT22;30716;41.740;-70.400;2023-04-15T00:09:06;23.90;42.10
44982;DHT22;30716;41.740;-70.400;2023-04-15T00:11:32;23.90;43.00
44982;DHT22;30716;41.740;-70.400;2023-04-15T00:13:59;24.00;42.50
44982;DHT22;30716;41.740;-70.400;2023-04-15T00:16:25;24.00;42.30
44982;DHT22;30716;41.740;-70.400;2023-04-15T00:18:51;24.00;42.30
44982;DHT22;30716;41.740;-70.400;2023-04-15T00:21:17;24.00;42.30
44982;DHT22;30716;41.740;-70.400;2023-04-15T00:23:43;24.00;43.00
44982;DHT22;30716;41.740;-70.400;2023-04-15T00:26:10;24.00;42.30
44982;DHT22;30716;41.740;-70.400;2023-04-15T00:28:36;24.00;42.30
44982;DHT22;30716;41.740;-70.400;2023-04-15T00:31:02;24.00;42.40
44982;DHT22;30716;41.740;-70.400;2023-04-15T00:33:29;24.00;42.20
44982;DHT22;30716;41.740;-70.400;2023-04-15T00:35:55;24.00;42.20
44982;DHT22;30716;41.740;-70.400;2023-04-15T00:38:21;24.00;42.30
44982;DHT22;30716;41.740;-70.400;2023-04-15T00:40:47;23.90;42.10
44982;DHT22;30716;41.740;-70.400;2023-04-15T00:43:13;23.90;42.20
44982;DHT22;30716;41.740;-70.400;2023-04-15T00:45:39;23.90;42.30
44982;DHT22;30716;41.740;-70.400;2023-04-15T00:48:06;23.90;42.40
44982;DHT22;30716;41.740;-70.400;2023-04-15T00:50:32;23.90;42.30
44982;DHT22;30716;41.740;-70.400;2023-04-15T00:52:58;23.90;42.20
44982;DHT22;30716;41.740;-70.400;2023-04-15T00:55:25;24.00;42.30
44982;DHT22;30716;41.740;-70.400;2023-04-15T00:57:51;24.00;42.20
44982;DHT22;30716;41.740;-70.400;2023-04-15T01:00:18;24.00;42.20
44982;DHT22;30716;41.740;-70.400;2023-04-15T01:02:45;24.00;42.20
44982;DHT22;30716;41.740;-70.400;2023-04-15T01:05:11;24.00;42.10
44982;DHT22;30716;41.740;-70.400;2023-04-15T01:07:37;24.00;42.20
44982;DHT22;30716;41.740;-70.400;2023-04-15T01:10:04;24.00;42.20
44982;DHT22;30716;41.740;-70.400;2023-04-15T01:12:31;24.10;42.20
44982;DHT22;30716;41.740;-70.400;2023-04-15T01:14:58;24.00;42.00
44982;DHT22;30716;41.740;-70.400;2023-04-15T01:17:24;24.00;42.20
44982;DHT22;30716;41.740;-70.400;2023-04-15T01:19:51;24.00;42.30
44982;DHT22;30716;41.740;-70.400;2023-04-15T01:22:17;24.10;42.50
44982;DHT22;30716;41.740;-70.400;2023-04-15T01:24:54;24.10;42.10
44982;DHT22;30716;41.740;-70.400;2023-04-15T01:27:21;24.10;42.10
44982;DHT22;30716;41.740;-70.400;2023-04-15T01:29:48;24.10;42.20
44982;DHT22;30716;41.740;-70.400;2023-04-15T01:32:14;24.00;42.10
44982;DHT22;30716;41.740;-70.400;2023-04-15T01:34:40;24.00;42.20
44982;DHT22;30716;41.740;-70.400;2023-04-15T01:37:06;24.10;42.30
44982;DHT22;30716;41.740;-70.400;2023-04-15T01:39:33;24.00;42.20
44982;DHT22;30716;41.740;-70.400;2023-04-15T01:41:59;24.00;42.30
44982;DHT22;30716;41.740;-70.400;2023-04-15T01:44:25;24.10;42.30
44982;DHT22;30716;41.740;-70.400;2023-04-15T01:46:52;24.00;42.20
44982;DHT22;30716;41.740;-70.400;2023-04-15T01:49:18;24.00;42.20
44982;DHT22;30716;41.740;-70.400;2023-04-15T01:51:44;24.00;42.40
44982;DHT22;30716;41.740;-70.400;2023-04-15T01:54:10;24.00;42.40
44982;DHT22;30716;41.740;-70.400;2023-04-15T01:56:36;23.90;42.30
44982;DHT22;30716;41.740;-70.400;2023-04-15T01:59:03;24.00;42.40
44982;DHT22;30716;41.740;-70.400;2023-04-15T02:01:29;24.00;42.20
44982;DHT22;30716;41.740;-70.400;2023-04-15T02:03:56;24.00;42.20
44982;DHT22;30716;41.740;-70.400;2023-04-15T02:06:22;24.00;42.20
44982;DHT22;30716;41.740;-70.400;2023-04-15T02:08:49;24.00;42.20
44982;DHT22;30716;41.740;-70.400;2023-04-15T02:11:15;24.00;42.30
44982;DHT22;30716;41.740;-70.400;2023-04-15T02:13:41;24.00;42.30
44982;DHT22;30716;41.740;-70.400;2023-04-15T02:16:17;24.00;42.30
44982;DHT22;30716;41.740;-70.400;2023-04-15T02:18:45;24.00;42.20
44982;DHT22;30716;41.740;-70.400;2023-04-15T02:21:12;24.00;42.30
44982;DHT22;30716;41.740;-70.400;2023-04-15T02:23:38;24.10;42.50
44982;DHT22;30716;41.740;-70.400;2023-04-15T02:26:04;24.00;42.30
44982;DHT22;30716;41.740;-70.400;2023-04-15T02:28:30;24.00;42.40
44982;DHT22;30716;41.740;-70.400;2023-04-15T02:30:56;24.00;42.50
44982;DHT22;30716;41.740;-70.400;2023-04-15T02:33:24;24.10;42.40
44982;DHT22;30716;41.740;-70.400;2023-04-15T02:35:50;24.10;42.40
44982;DHT22;30716;41.740;-70.400;2023-04-15T02:38:17;24.00;42.40
44982;DHT22;30716;41.740;-70.400;2023-04-15T02:40:44;23.90;42.10
44982;DHT22;30716;41.740;-70.400;2023-04-15T02:43:10;24.00;42.20
44982;DHT22;30716;41.740;-70.400;2023-04-15T02:45:36;23.90;42.40
44982;DHT22;30716;41.740;-70.400;2023-04-15T02:48:02;24.00;42.70
44982;DHT22;30716;41.740;-70.400;2023-04-15T02:50:31;23.90;42.80
44982;DHT22;30716;41.740;-70.400;2023-04-15T02:52:57;23.90;42.60
44982;DHT22;30716;41.740;-70.400;2023-04-15T02:55:23;23.90;42.40
44982;DHT22;30716;41.740;-70.400;2023-04-15T02:57:49;24.00;42.60
44982;DHT22;30716;41.740;-70.400;2023-04-15T03:00:15;23.90;42.70
44982;DHT22;30716;41.740;-70.400;2023-04-15T03:02:43;23.90;42.40
44982;DHT22;30716;41.740;-70.400;2023-04-15T03:05:13;23.90;42.30
44982;DHT22;30716;41.740;-70.400;2023-04-15T03:07:39;23.90;42.30
44982;DHT22;30716;41.740;-70.400;2023-04-15T03:10:06;24.00;42.70
44982;DHT22;30716;41.740;-70.400;2023-04-15T03:12:33;24.00;42.40
44982;DHT22;30716;41.740;-70.400;2023-04-15T03:14:59;23.90;42.30
44982;DHT22;30716;41.740;-70.400;2023-04-15T03:17:26;24.00;42.20
44982;DHT22;30716;41.740;-70.400;2023-04-15T03:19:52;24.00;42.10
44982;DHT22;30716;41.740;-70.400;2023-04-15T03:22:19;23.90;42.00
44982;DHT22;30716;41.740;-70.400;2023-04-15T03:24:45;23.90;42.40
44982;DHT22;30716;41.740;-70.400;2023-04-15T03:27:11;23.90;42.60
44982;DHT22;30716;41.740;-70.400;2023-04-15T03:29:37;23.90;42.60
44982;DHT22;30716;41.740;-70.400;2023-04-15T03:32:04;23.90;42.60
44982;DHT22;30716;41.740;-70.400;2023-04-15T03:34:30;23.90;42.60
44982;DHT22;30716;41.740;-70.400;2023-04-15T03:36:56;23.90;42.30
44982;DHT22;30716;41.740;-70.400;2023-04-15T03:39:22;23.90;42.30
44982;DHT22;30716;41.740;-70.400;2023-04-15T03:41:49;23.90;42.30
44982;DHT22;30716;41.740;-70.400;2023-04-15T03:44:15;23.90;42.30
44982;DHT22;30716;41.740;-70.400;2023-04-15T03:46:41;23.90;42.40
44982;DHT22;30716;41.740;-70.400;2023-04-15T03:49:08;24.00;42.40
44982;DHT22;30716;41.740;-70.400;2023-04-15T03:51:34;24.00;42.30
44982;DHT22;30716;41.740;-70.400;2023-04-15T03:54:00;24.00;42.20
44982;DHT22;30716;41.740;-70.400;2023-04-15T03:56:27;24.00;42.20
44982;DHT22;30716;41.740;-70.400;2023-04-15T03:58:53;24.00;42.30
44982;DHT22;30716;41.740;-70.400;2023-04-15T04:01:19;24.00;42.30
44982;DHT22;30716;41.740;-70.400;2023-04-15T04:03:45;24.00;42.30
44982;DHT22;30716;41.740;-70.400;2023-04-15T04:06:11;24.00;42.20
44982;DHT22;30716;41.740;-70.400;2023-04-15T04:08:37;24.00;42.30
44982;DHT22;30716;41.740;-70.400;2023-04-15T04:11:04;24.00;42.30
44982;DHT22;30716;41.740;-70.400;2023-04-15T04:13:30;24.00;42.30
44982;DHT22;30716;41.740;-70.400;2023-04-15T04:15:56;24.00;42.20
44982;DHT22;30716;41.740;-70.400;2023-04-15T04:18:22;24.00;42.30
44982;DHT22;30716;41.740;-70.400;2023-04-15T04:20:48;24.10;42.30
44982;DHT22;30716;41.740;-70.400;2023-04-15T04:23:15;24.10;42.40
44982;DHT22;30716;41.740;-70.400;2023-04-15T04:25:41;24.00;42.30
44982;DHT22;30716;41.740;-70.400;2023-04-15T04:28:08;24.10;42.40
44982;DHT22;30716;41.740;-70.400;2023-04-15T04:30:34;24.00;42.30
44982;DHT22;30716;41.740;-70.400;2023-04-15T04:33:01;24.10;42.30
44982;DHT22;30716;41.740;-70.400;2023-04-15T04:35:27;24.00;42.30
44982;DHT22;30716;41.740;-70.400;2023-04-15T04:37:53;24.00;42.30
44982;DHT22;30716;41.740;-70.400;2023-04-15T04:40:19;24.10;42.40
44982;DHT22;30716;41.740;-70.400;2023-04-15T04:42:45;24.10;42.50
44982;DHT22;30716;41.740;-70.400;2023-04-15T04:45:12;24.10;42.30
44982;DHT22;30716;41.740;-70.400;2023-04-15T04:47:38;24.10;42.30
44982;DHT22;30716;41.740;-70.400;2023-04-15T04:50:04;24.10;42.20
44982;DHT22;30716;41.740;-70.400;2023-04-15T04:52:31;24.10;42.20
44982;DHT22;30716;41.740;-70.400;2023-04-15T04:54:57;24.10;42.20
44982;DHT22;30716;41.740;-70.400;2023-04-15T04:57:23;24.10;42.10
44982;DHT22;30716;41.740;-70.400;2023-04-15T04:59:50;24.10;42.20
44982;DHT22;30716;41.740;-70.400;2023-04-15T05:02:16;24.10;42.20
44982;DHT22;30716;41.740;-70.400;2023-04-15T05:04:42;24.10;42.20
44982;DHT22;30716;41.740;-70.400;2023-04-15T05:07:08;24.10;42.20
44982;DHT22;30716;41.740;-70.400;2023-04-15T05:09:35;24.20;42.20
44982;DHT22;30716;41.740;-70.400;2023-04-15T05:12:03;24.10;42.00
44982;DHT22;30716;41.740;-70.400;2023-04-15T05:14:29;24.10;42.00
44982;DHT22;30716;41.740;-70.400;2023-04-15T05:16:56;24.10;42.00
44982;DHT22;30716;41.740;-70.400;2023-04-15T05:19:23;24.20;42.10
44982;DHT22;30716;41.740;-70.400;2023-04-15T05:21:49;24.10;42.20
44982;DHT22;30716;41.740;-70.400;2023-04-15T05:24:15;24.10;42.30
44982;DHT22;30716;41.740;-70.400;2023-04-15T05:26:41;24.10;42.30
44982;DHT22;30716;41.740;-70.400;2023-04-15T05:29:08;24.10;41.70
44982;DHT22;30716;41.740;-70.400;2023-04-15T05:31:34;24.10;42.30
44982;DHT22;30716;41.740;-70.400;2023-04-15T05:34:00;24.10;42.10
44982;DHT22;30716;41.740;-70.400;2023-04-15T05:36:27;24.10;42.10
44982;DHT22;30716;41.740;-70.400;2023-04-15T05:38:53;24.10;42.10
44982;DHT22;30716;41.740;-70.400;2023-04-15T05:41:19;24.10;42.10
44982;DHT22;30716;41.740;-70.400;2023-04-15T05:43:45;24.10;42.30
44982;DHT22;30716;41.740;-70.400;2023-04-15T05:46:11;24.10;42.20
44982;DHT22;30716;41.740;-70.400;2023-04-15T05:48:38;24.10;42.10
44982;DHT22;30716;41.740;-70.400;2023-04-15T05:51:04;24.10;42.10
44982;DHT22;30716;41.740;-70.400;2023-04-15T05:53:30;24.10;42.20
44982;DHT22;30716;41.740;-70.400;2023-04-15T05:55:56;24.10;42.10
44982;DHT22;30716;41.740;-70.400;2023-04-15T05:58:22;24.10;42.10
44982;DHT22;30716;41.740;-70.400;2023-04-15T06:00:49;24.20;42.20
44982;DHT22;30716;41.740;-70.400;2023-04-15T06:03:15;24.10;42.20
44982;DHT22;30716;41.740;-70.400;2023-04-15T06:05:41;24.10;42.30
44982;DHT22;30716;41.740;-70.400;2023-04-15T06:08:09;24.10;42.20
44982;DHT22;30716;41.740;-70.400;2023-04-15T06:10:36;24.10;42.20
44982;DHT22;30716;41.740;-70.400;2023-04-15T06:13:03;24.10;42.10
44982;DHT22;30716;41.740;-70.400;2023-04-15T06:15:29;24.10;42.10
44982;DHT22;30716;41.740;-70.400;2023-04-15T06:17:56;24.10;42.10
44982;DHT22;30716;41.740;-70.400;2023-04-15T06:20:22;24.20;42.20
44982;DHT22;30716;41.740;-70.400;2023-04-15T06:22:48;24.10;42.10
44982;DHT22;30716;41.740;-70.400;2023-04-15T06:25:14;24.20;42.30
44982;DHT22;30716;41.740;-70.400;2023-04-15T06:27:41;24.10;42.10
44982;DHT22;30716;41.740;-70.400;2023-04-15T06:30:07;24.10;42.10
44982;DHT22;30716;41.740;-70.400;2023-04-15T06:32:33;24.10;42.00
44982;DHT22;30716;41.740;-70.400;2023-04-15T06:35:00;24.10;42.00
44982;DHT22;30716;41.740;-70.400;2023-04-15T06:37:26;24.20;42.20
44982;DHT22;30716;41.740;-70.400;2023-04-15T06:39:52;24.10;42.20
44982;DHT22;30716;41.740;-70.400;2023-04-15T06:42:18;24.20;42.20
44982;DHT22;30716;41.740;-70.400;2023-04-15T06:44:45;24.10;42.10
44982;DHT22;30716;41.740;-70.400;2023-04-15T06:47:11;24.10;42.30
44982;DHT22;30716;41.740;-70.400;2023-04-15T06:49:39;24.10;42.50
44982;DHT22;30716;41.740;-70.400;2023-04-15T06:52:06;24.10;42.10
44982;DHT22;30716;41.740;-70.400;2023-04-15T06:54:32;24.10;42.10
44982;DHT22;30716;41.740;-70.400;2023-04-15T06:56:58;24.10;42.20
44982;DHT22;30716;41.740;-70.400;2023-04-15T06:59:24;24.10;42.20
44982;DHT22;30716;41.740;-70.400;2023-04-15T07:01:50;24.10;42.20
44982;DHT22;30716;41.740;-70.400;2023-04-15T07:04:16;24.10;42.10
44982;DHT22;30716;41.740;-70.400;2023-04-15T07:06:43;24.10;42.20
44982;DHT22;30716;41.740;-70.400;2023-04-15T07:09:09;24.10;42.20
44982;DHT22;30716;41.740;-70.400;2023-04-15T07:11:35;24.10;42.30
44982;DHT22;30716;41.740;-70.400;2023-04-15T07:14:02;24.10;42.40
44982;DHT22;30716;41.740;-70.400;2023-04-15T07:16:28;24.10;42.40
44982;DHT22;30716;41.740;-70.400;2023-04-15T07:18:55;24.10;42.40
44982;DHT22;30716;41.740;-70.400;2023-04-15T07:21:22;24.10;42.40
44982;DHT22;30716;41.740;-70.400;2023-04-15T07:23:48;24.10;42.30
44982;DHT22;30716;41.740;-70.400;2023-04-15T07:26:14;24.10;42.40
44982;DHT22;30716;41.740;-70.400;2023-04-15T07:28:41;24.10;42.30
44982;DHT22;30716;41.740;-70.400;2023-04-15T07:31:07;24.10;42.40
44982;DHT22;30716;41.740;-70.400;2023-04-15T07:33:33;24.10;42.30
44982;DHT22;30716;41.740;-70.400;2023-04-15T07:35:59;24.10;42.40
44982;DHT22;30716;41.740;-70.400;2023-04-15T07:38:25;24.10;42.40
44982;DHT22;30716;41.740;-70.400;2023-04-15T07:40:52;24.10;42.30
44982;DHT22;30716;41.740;-70.400;2023-04-15T07:43:18;24.10;42.40
44982;DHT22;30716;41.740;-70.400;2023-04-15T07:45:46;24.10;42.40
44982;DHT22;30716;41.740;-70.400;2023-04-15T07:48:12;24.10;42.90
44982;DHT22;30716;41.740;-70.400;2023-04-15T07:50:38;24.10;42.40
44982;DHT22;30716;41.740;-70.400;2023-04-15T07:53:04;24.20;42.60
44982;DHT22;30716;41.740;-70.400;2023-04-15T07:55:31;24.20;42.50
44982;DHT22;30716;41.740;-70.400;2023-04-15T07:57:58;24.20;42.40
44982;DHT22;30716;41.740;-70.400;2023-04-15T08:00:24;24.20;42.40
44982;DHT22;30716;41.740;-70.400;2023-04-15T08:02:51;24.20;42.50
44982;DHT22;30716;41.740;-70.400;2023-04-15T08:05:18;24.20;42.40
44982;DHT22;30716;41.740;-70.400;2023-04-15T08:07:45;24.20;42.40
44982;DHT22;30716;41.740;-70.400;2023-04-15T08:10:11;24.20;42.30
44982;DHT22;30716;41.740;-70.400;2023-04-15T08:12:37;24.20;42.20
44982;DHT22;30716;41.740;-70.400;2023-04-15T08:15:04;24.20;42.30
44982;DHT22;30716;41.740;-70.400;2023-04-15T08:17:30;24.20;42.30
44982;DHT22;30716;41.740;-70.400;2023-04-15T08:19:56;24.20;42.40
44982;DHT22;30716;41.740;-70.400;2023-04-15T08:22:22;24.20;42.40
44982;DHT22;30716;41.740;-70.400;2023-04-15T08:24:49;24.20;42.30
44982;DHT22;30716;41.740;-70.400;2023-04-15T08:27:15;24.20;42.40
44982;DHT22;30716;41.740;-70.400;2023-04-15T08:29:41;24.20;42.30
44982;DHT22;30716;41.740;-70.400;2023-04-15T08:32:07;24.20;42.30
44982;DHT22;30716;41.740;-70.400;2023-04-15T08:34:34;24.20;42.40
44982;DHT22;30716;41.740;-70.400;2023-04-15T08:37:00;24.20;42.50
44982;DHT22;30716;41.740;-70.400;2023-04-15T08:39:26;24.20;42.30
44982;DHT22;30716;41.740;-70.400;2023-04-15T08:42:15;24.20;42.30
44982;DHT22;30716;41.740;-70.400;2023-04-15T08:44:42;24.20;42.30
44982;DHT22;30716;41.740;-70.400;2023-04-15T08:47:12;24.20;42.30
44982;DHT22;30716;41.740;-70.400;2023-04-15T08:49:40;24.20;42.30
44982;DHT22;30716;41.740;-70.400;2023-04-15T08:52:08;24.20;42.40
44982;DHT22;30716;41.740;-70.400;2023-04-15T08:54:34;24.20;42.30
44982;DHT22;30716;41.740;-70.400;2023-04-15T08:57:01;24.20;42.30
44982;DHT22;30716;41.740;-70.400;2023-04-15T08:59:31;24.20;42.30
44982;DHT22;30716;41.740;-70.400;2023-04-15T09:01:58;24.20;42.30
44982;DHT22;30716;41.740;-70.400;2023-04-15T09:04:24;24.20;42.40
44982;DHT22;30716;41.740;-70.400;2023-04-15T09:06:50;24.20;42.40
44982;DHT22;30716;41.740;-70.400;2023-04-15T09:09:17;24.20;42.40
44982;DHT22;30716;41.740;-70.400;2023-04-15T09:11:43;24.20;42.30
44982;DHT22;30716;41.740;-70.400;2023-04-15T09:14:09;24.20;42.20
44982;DHT22;30716;41.740;-70.400;2023-04-15T09:17:01;24.20;42.30
44982;DHT22;30716;41.740;-70.400;2023-04-15T09:19:28;24.20;42.30
44982;DHT22;30716;41.740;-70.400;2023-04-15T09:21:56;24.20;42.20
44982;DHT22;30716;41.740;-70.400;2023-04-15T09:24:23;24.20;42.20
44982;DHT22;30716;41.740;-70.400;2023-04-15T09:26:53;24.30;42.20
44982;DHT22;30716;41.740;-70.400;2023-04-15T09:29:24;24.30;42.30
44982;DHT22;30716;41.740;-70.400;2023-04-15T09:31:51;24.30;42.30
44982;DHT22;30716;41.740;-70.400;2023-04-15T09:34:18;24.20;42.20
44982;DHT22;30716;41.740;-70.400;2023-04-15T09:39:16;24.30;42.30
44982;DHT22;30716;41.740;-70.400;2023-04-15T09:41:42;24.30;42.30
44982;DHT22;30716;41.740;-70.400;2023-04-15T09:44:23;24.30;42.40
44982;DHT22;30716;41.740;-70.400;2023-04-15T09:46:49;24.30;42.20
44982;DHT22;30716;41.740;-70.400;2023-04-15T09:49:16;24.30;42.30
44982;DHT22;30716;41.740;-70.400;2023-04-15T09:51:42;24.30;42.40
44982;DHT22;30716;41.740;-70.400;2023-04-15T09:54:09;24.30;42.30
44982;DHT22;30716;41.740;-70.400;2023-04-15T09:56:38;24.30;42.30
44982;DHT22;30716;41.740;-70.400;2023-04-15T09:59:07;24.30;42.30
44982;DHT22;30716;41.740;-70.400;2023-04-15T10:01:34;24.30;42.40
44982;DHT22;30716;41.740;-70.400;2023-04-15T10:04:04;24.30;42.20
44982;DHT22;30716;41.740;-70.400;2023-04-15T10:06:30;24.30;42.40
44982;DHT22;30716;41.740;-70.400;2023-04-15T10:08:58;24.30;42.50
44982;DHT22;30716;41.740;-70.400;2023-04-15T10:11:25;24.30;42.40
44982;DHT22;30716;41.740;-70.400;2023-04-15T10:13:53;24.30;42.40
44982;DHT22;30716;41.740;-70.400;2023-04-15T10:16:20;24.30;42.20
44982;DHT22;30716;41.740;-70.400;2023-04-15T10:18:56;24.40;42.30
44982;DHT22;30716;41.740;-70.400;2023-04-15T10:21:23;24.40;42.20
44982;DHT22;30716;41.740;-70.400;2023-04-15T10:23:50;24.30;42.10
44982;DHT22;30716;41.740;-70.400;2023-04-15T10:26:16;24.40;42.20
44982;DHT22;30716;41.740;-70.400;2023-04-15T10:28:43;24.30;42.10
44982;DHT22;30716;41.740;-70.400;2023-04-15T10:31:11;24.40;42.40
44982;DHT22;30716;41.740;-70.400;2023-04-15T10:33:40;24.30;42.20
44982;DHT22;30716;41.740;-70.400;2023-04-15T10:36:07;24.40;42.30
44982;DHT22;30716;41.740;-70.400;2023-04-15T10:38:43;24.40;42.20
44982;DHT22;30716;41.740;-70.400;2023-04-15T10:43:55;24.40;42.30
44982;DHT22;30716;41.740;-70.400;2023-04-15T10:46:42;24.30;42.10
44982;DHT22;30716;41.740;-70.400;2023-04-15T10:49:23;24.40;42.30
44982;DHT22;30716;41.740;-70.400;2023-04-15T10:51:57;24.40;42.30
44982;DHT22;30716;41.740;-70.400;2023-04-15T10:57:05;24.40;42.30
44982;DHT22;30716;41.740;-70.400;2023-04-15T10:59:36;24.40;42.30
44982;DHT22;30716;41.740;-70.400;2023-04-15T11:02:05;24.40;42.30
44982;DHT22;30716;41.740;-70.400;2023-04-15T11:04:54;24.40;42.30
44982;DHT22;30716;41.740;-70.400;2023-04-15T11:12:53;24.40;42.30
44982;DHT22;30716;41.740;-70.400;2023-04-15T11:15:35;24.30;42.30
44982;DHT22;30716;41.740;-70.400;2023-04-15T11:20:37;24.40;42.20
44982;DHT22;30716;41.740;-70.400;2023-04-15T11:23:04;24.40;42.30
44982;DHT22;30716;41.740;-70.400;2023-04-15T11:25:32;24.40;42.30
44982;DHT22;30716;41.740;-70.400;2023-04-15T11:28:00;24.40;42.30
44982;DHT22;30716;41.740;-70.400;2023-04-15T11:30:29;24.40;42.60
44982;DHT22;30716;41.740;-70.400;2023-04-15T11:32:58;24.40;42.20
44982;DHT22;30716;41.740;-70.400;2023-04-15T11:35:25;24.30;42.20
44982;DHT22;30716;41.740;-70.400;2023-04-15T11:37:51;24.30;42.10
44982;DHT22;30716;41.740;-70.400;2023-04-15T11:40:29;24.30;42.10
44982;DHT22;30716;41.740;-70.400;2023-04-15T11:43:11;24.30;42.10
44982;DHT22;30716;41.740;-70.400;2023-04-15T11:48:16;24.30;42.10
44982;DHT22;30716;41.740;-70.400;2023-04-15T11:50:43;24.30;42.20
44982;DHT22;30716;41.740;-70.400;2023-04-15T11:53:12;24.30;42.10
44982;DHT22;30716;41.740;-70.400;2023-04-15T11:55:47;24.30;42.10
44982;DHT22;30716;41.740;-70.400;2023-04-15T12:01:18;24.30;42.00
44982;DHT22;30716;41.740;-70.400;2023-04-15T12:03:41;24.40;42.10
44982;DHT22;30716;41.740;-70.400;2023-04-15T12:08:57;24.40;42.20
44982;DHT22;30716;41.740;-70.400;2023-04-15T12:11:33;24.30;42.30
44982;DHT22;30716;41.740;-70.400;2023-04-15T12:14:03;24.30;42.30
44982;DHT22;30716;41.740;-70.400;2023-04-15T12:16:30;24.30;42.20
44982;DHT22;30716;41.740;-70.400;2023-04-15T12:18:57;24.30;42.20
44982;DHT22;30716;41.740;-70.400;2023-04-15T12:21:26;24.30;42.20
44982;DHT22;30716;41.740;-70.400;2023-04-15T12:23:53;24.30;42.20
44982;DHT22;30716;41.740;-70.400;2023-04-15T12:26:28;24.30;42.20
44982;DHT22;30716;41.740;-70.400;2023-04-15T12:28:59;24.30;42.40
44982;DHT22;30716;41.740;-70.400;2023-04-15T12:31:26;24.30;42.20
44982;DHT22;30716;41.740;-70.400;2023-04-15T12:33:55;24.30;42.20
44982;DHT22;30716;41.740;-70.400;2023-04-15T12:36:21;24.30;42.30
44982;DHT22;30716;41.740;-70.400;2023-04-15T12:38:48;24.30;42.40
44982;DHT22;30716;41.740;-70.400;2023-04-15T12:41:14;24.30;42.40
44982;DHT22;30716;41.740;-70.400;2023-04-15T12:43:43;24.30;42.40
44982;DHT22;30716;41.740;-70.400;2023-04-15T12:46:09;24.30;42.30
44982;DHT22;30716;41.740;-70.400;2023-04-15T12:48:35;24.30;42.20
44982;DHT22;30716;41.740;-70.400;2023-04-15T12:51:01;24.30;42.40
44982;DHT22;30716;41.740;-70.400;2023-04-15T12:53:28;24.30;42.40
44982;DHT22;30716;41.740;-70.400;2023-04-15T12:55:54;24.30;42.40
44982;DHT22;30716;41.740;-70.400;2023-04-15T12:58:20;24.30;42.40
44982;DHT22;30716;41.740;-70.400;2023-04-15T13:00:46;24.30;42.40
44982;DHT22;30716;41.740;-70.400;2023-04-15T13:03:14;24.30;42.50
44982;DHT22;30716;41.740;-70.400;2023-04-15T13:05:41;24.30;42.40
44982;DHT22;30716;41.740;-70.400;2023-04-15T13:08:07;24.30;42.20
44982;DHT22;30716;41.740;-70.400;2023-04-15T13:10:34;24.30;42.30
44982;DHT22;30716;41.740;-70.400;2023-04-15T13:13:04;24.30;42.20
44982;DHT22;30716;41.740;-70.400;2023-04-15T13:15:30;24.30;42.30
44982;DHT22;30716;41.740;-70.400;2023-04-15T13:17:57;24.30;42.50
44982;DHT22;30716;41.740;-70.400;2023-04-15T13:20:23;24.30;42.40
44982;DHT22;30716;41.740;-70.400;2023-04-15T13:22:52;24.30;42.40
44982;DHT22;30716;41.740;-70.400;2023-04-15T13:25:18;24.20;42.30
44982;DHT22;30716;41.740;-70.400;2023-04-15T13:27:44;24.30;42.30
44982;DHT22;30716;41.740;-70.400;2023-04-15T13:30:11;24.30;42.40
44982;DHT22;30716;41.740;-70.400;2023-04-15T13:32:37;24.20;42.30
44982;DHT22;30716;41.740;-70.400;2023-04-15T13:35:04;24.30;42.40
44982;DHT22;30716;41.740;-70.400;2023-04-15T13:37:30;24.30;42.30
44982;DHT22;30716;41.740;-70.400;2023-04-15T13:39:56;24.30;42.40
44982;DHT22;30716;41.740;-70.400;2023-04-15T13:42:23;24.30;42.30
44982;DHT22;30716;41.740;-70.400;2023-04-15T13:44:50;24.30;42.30
44982;DHT22;30716;41.740;-70.400;2023-04-15T13:47:20;24.30;42.30
44982;DHT22;30716;41.740;-70.400;2023-04-15T13:49:46;24.30;42.50
44982;DHT22;30716;41.740;-70.400;2023-04-15T13:52:13;24.30;42.50
44982;DHT22;30716;41.740;-70.400;2023-04-15T13:54:39;24.30;42.40
44982;DHT22;30716;41.740;-70.400;2023-04-15T13:57:05;24.30;42.40
44982;DHT22;30716;41.740;-70.400;2023-04-15T13:59:34;24.30;42.50
44982;DHT22;30716;41.740;-70.400;2023-04-15T14:02:01;24.30;42.40
44982;DHT22;30716;41.740;-70.400;2023-04-15T14:04:27;24.30;42.30
44982;DHT22;30716;41.740;-70.400;2023-04-15T14:06:53;24.30;42.40
44982;DHT22;30716;41.740;-70.400;2023-04-15T14:09:20;24.30;42.30
44982;DHT22;30716;41.740;-70.400;2023-04-15T14:11:49;24.20;42.50
44982;DHT22;30716;41.740;-70.400;2023-04-15T14:14:16;24.30;42.80
44982;DHT22;30716;41.740;-70.400;2023-04-15T14:16:42;24.20;42.30
44982;DHT22;30716;41.740;-70.400;2023-04-15T14:19:08;24.20;42.60
44982;DHT22;30716;41.740;-70.400;2023-04-15T14:21:34;24.20;42.50
44982;DHT22;30716;41.740;-70.400;2023-04-15T14:24:01;24.20;42.50
44982;DHT22;30716;41.740;-70.400;2023-04-15T14:26:27;24.20;42.50
44982;DHT22;30716;41.740;-70.400;2023-04-15T14:28:53;24.20;42.50
44982;DHT22;30716;41.740;-70.400;2023-04-15T14:31:19;24.20;42.60
44982;DHT22;30716;41.740;-70.400;2023-04-15T14:33:45;24.20;42.60
44982;DHT22;30716;41.740;-70.400;2023-04-15T14:36:11;24.20;42.60
44982;DHT22;30716;41.740;-70.400;2023-04-15T14:38:38;24.20;42.60
44982;DHT22;30716;41.740;-70.400;2023-04-15T14:41:05;24.20;42.60
44982;DHT22;30716;41.740;-70.400;2023-04-15T14:43:33;24.20;42.70
44982;DHT22;30716;41.740;-70.400;2023-04-15T14:45:59;24.20;42.60
44982;DHT22;30716;41.740;-70.400;2023-04-15T14:48:26;24.20;43.00
44982;DHT22;30716;41.740;-70.400;2023-04-15T14:50:52;24.20;42.50
44982;DHT22;30716;41.740;-70.400;2023-04-15T14:53:18;24.20;42.60
44982;DHT22;30716;41.740;-70.400;2023-04-15T14:55:44;24.10;42.60
44982;DHT22;30716;41.740;-70.400;2023-04-15T14:58:11;24.10;42.70
44982;DHT22;30716;41.740;-70.400;2023-04-15T15:00:38;24.10;42.70
44982;DHT22;30716;41.740;-70.400;2023-04-15T15:03:08;24.10;42.80
44982;DHT22;30716;41.740;-70.400;2023-04-15T15:05:38;24.10;42.90
44982;DHT22;30716;41.740;-70.400;2023-04-15T15:08:06;24.10;42.80
44982;DHT22;30716;41.740;-70.400;2023-04-15T15:10:33;24.10;42.80
44982;DHT22;30716;41.740;-70.400;2023-04-15T15:13:00;24.20;42.80
44982;DHT22;30716;41.740;-70.400;2023-04-15T15:15:26;24.10;42.70
44982;DHT22;30716;41.740;-70.400;2023-04-15T15:17:53;24.20;42.70
44982;DHT22;30716;41.740;-70.400;2023-04-15T15:20:19;24.20;42.90
44982;DHT22;30716;41.740;-70.400;2023-04-15T15:22:45;24.20;42.80
44982;DHT22;30716;41.740;-70.400;2023-04-15T15:25:12;24.20;42.70
44982;DHT22;30716;41.740;-70.400;2023-04-15T15:27:38;24.20;42.70